sensor_id;sensor_type;location;lat;lon;timestamp;P1;durP1;ratioP1;P2;durP2;ratioP2
23432;SDS011;41331;45.412;10.992;2022-10-18T00:01:11;50.25;;;26.65;;
23432;SDS011;41331;45.412;10.992;2022-10-18T00:03:38;46.97;;;26.50;;
23432;SDS011;41331;45.412;10.992;2022-10-18T00:06:06;45.15;;;26.33;;
23432;SDS011;41331;45.412;10.992;2022-10-18T00:08:36;45.25;;;25.73;;
23432;SDS011;41331;45.412;10.992;2022-10-18T00:11:05;43.08;;;26.15;;
23432;SDS011;41331;45.412;10.992;2022-10-18T00:13:33;43.20;;;25.60;;
23432;SDS011;41331;45.412;10.992;2022-10-18T00:16:01;42.85;;;27.52;;
23432;SDS011;41331;45.412;10.992;2022-10-18T00:18:32;44.53;;;26.65;;
23432;SDS011;41331;45.412;10.992;2022-10-18T00:21:04;40.60;;;25.70;;
23432;SDS011;41331;45.412;10.992;2022-10-18T00:23:34;43.33;;;25.85;;
23432;SDS011;41331;45.412;10.992;2022-10-18T00:28:38;42.35;;;25.48;;
23432;SDS011;41331;45.412;10.992;2022-10-18T00:34:06;42.03;;;25.48;;
23432;SDS011;41331;45.412;10.992;2022-10-18T00:36:39;46.35;;;24.92;;
23432;SDS011;41331;45.412;10.992;2022-10-18T00:39:07;43.63;;;24.25;;
23432;SDS011;41331;45.412;10.992;2022-10-18T00:41:42;37.63;;;23.83;;
23432;SDS011;41331;45.412;10.992;2022-10-18T00:46:39;35.67;;;22.50;;
23432;SDS011;41331;45.412;10.992;2022-10-18T00:52:25;38.47;;;23.65;;
23432;SDS011;41331;45.412;10.992;2022-10-18T00:55:02;39.42;;;22.42;;
23432;SDS011;41331;45.412;10.992;2022-10-18T00:57:33;41.47;;;23.55;;
23432;SDS011;41331;45.412;10.992;2022-10-18T01:00:03;37.28;;;23.65;;
23432;SDS011;41331;45.412;10.992;2022-10-18T01:02:36;37.40;;;23.20;;
23432;SDS011;41331;45.412;10.992;2022-10-18T01:05:04;37.00;;;23.13;;
23432;SDS011;41331;45.412;10.992;2022-10-18T01:10:41;37.42;;;21.92;;
23432;SDS011;41331;45.412;10.992;2022-10-18T01:13:25;36.70;;;22.48;;
23432;SDS011;41331;45.412;10.992;2022-10-18T01:16:08;35.13;;;21.80;;
23432;SDS011;41331;45.412;10.992;2022-10-18T01:18:57;36.67;;;22.23;;
23432;SDS011;41331;45.412;10.992;2022-10-18T01:24:34;31.90;;;20.70;;
23432;SDS011;41331;45.412;10.992;2022-10-18T01:35:49;33.65;;;21.13;;
23432;SDS011;41331;45.412;10.992;2022-10-18T01:38:32;34.58;;;21.73;;
23432;SDS011;41331;45.412;10.992;2022-10-18T01:41:02;32.83;;;20.92;;
23432;SDS011;41331;45.412;10.992;2022-10-18T01:43:34;35.90;;;21.65;;
23432;SDS011;41331;45.412;10.992;2022-10-18T01:46:05;40.63;;;22.80;;
23432;SDS011;41331;45.412;10.992;2022-10-18T01:48:35;33.42;;;20.48;;
23432;SDS011;41331;45.412;10.992;2022-10-18T01:51:04;38.83;;;22.45;;
23432;SDS011;41331;45.412;10.992;2022-10-18T01:53:32;34.90;;;21.58;;
23432;SDS011;41331;45.412;10.992;2022-10-18T02:04:03;33.90;;;20.85;;
23432;SDS011;41331;45.412;10.992;2022-10-18T02:06:38;35.55;;;21.83;;
23432;SDS011;41331;45.412;10.992;2022-10-18T02:09:12;33.17;;;19.58;;
23432;SDS011;41331;45.412;10.992;2022-10-18T02:11:46;31.50;;;20.17;;
23432;SDS011;41331;45.412;10.992;2022-10-18T02:14:18;29.02;;;19.10;;
23432;SDS011;41331;45.412;10.992;2022-10-18T02:16:49;30.00;;;19.48;;
23432;SDS011;41331;45.412;10.992;2022-10-18T02:19:24;31.40;;;19.33;;
23432;SDS011;41331;45.412;10.992;2022-10-18T02:21:54;28.98;;;18.58;;
23432;SDS011;41331;45.412;10.992;2022-10-18T02:24:34;31.80;;;19.25;;
23432;SDS011;41331;45.412;10.992;2022-10-18T02:27:05;32.33;;;18.83;;
23432;SDS011;41331;45.412;10.992;2022-10-18T02:29:32;30.85;;;19.55;;
23432;SDS011;41331;45.412;10.992;2022-10-18T02:32:05;32.22;;;19.60;;
23432;SDS011;41331;45.412;10.992;2022-10-18T02:34:42;32.97;;;20.42;;
23432;SDS011;41331;45.412;10.992;2022-10-18T02:37:13;33.58;;;20.17;;
23432;SDS011;41331;45.412;10.992;2022-10-18T02:39:44;29.60;;;18.58;;
23432;SDS011;41331;45.412;10.992;2022-10-18T02:42:14;35.80;;;19.73;;
23432;SDS011;41331;45.412;10.992;2022-10-18T02:44:42;31.48;;;18.48;;
23432;SDS011;41331;45.412;10.992;2022-10-18T02:47:09;34.30;;;19.35;;
23432;SDS011;41331;45.412;10.992;2022-10-18T02:49:38;30.55;;;19.42;;
23432;SDS011;41331;45.412;10.992;2022-10-18T02:52:05;35.20;;;19.67;;
23432;SDS011;41331;45.412;10.992;2022-10-18T02:54:33;31.75;;;19.25;;
23432;SDS011;41331;45.412;10.992;2022-10-18T02:57:00;33.33;;;19.95;;
23432;SDS011;41331;45.412;10.992;2022-10-18T02:59:27;29.95;;;19.00;;
23432;SDS011;41331;45.412;10.992;2022-10-18T03:01:55;29.50;;;19.15;;
23432;SDS011;41331;45.412;10.992;2022-10-18T03:04:22;29.65;;;18.98;;
23432;SDS011;41331;45.412;10.992;2022-10-18T03:06:50;30.55;;;18.88;;
23432;SDS011;41331;45.412;10.992;2022-10-18T03:09:17;32.95;;;19.55;;
23432;SDS011;41331;45.412;10.992;2022-10-18T03:11:44;31.88;;;19.23;;
23432;SDS011;41331;45.412;10.992;2022-10-18T03:14:12;31.70;;;19.75;;
23432;SDS011;41331;45.412;10.992;2022-10-18T03:16:39;33.38;;;19.83;;
23432;SDS011;41331;45.412;10.992;2022-10-18T03:19:07;32.72;;;19.08;;
23432;SDS011;41331;45.412;10.992;2022-10-18T03:21:34;29.17;;;18.73;;
23432;SDS011;41331;45.412;10.992;2022-10-18T03:24:02;32.17;;;19.17;;
23432;SDS011;41331;45.412;10.992;2022-10-18T03:26:29;32.53;;;19.88;;
23432;SDS011;41331;45.412;10.992;2022-10-18T03:28:56;28.60;;;19.35;;
23432;SDS011;41331;45.412;10.992;2022-10-18T03:31:24;28.95;;;18.25;;
23432;SDS011;41331;45.412;10.992;2022-10-18T03:33:51;30.80;;;19.70;;
23432;SDS011;41331;45.412;10.992;2022-10-18T03:36:19;33.47;;;19.55;;
23432;SDS011;41331;45.412;10.992;2022-10-18T03:38:46;32.60;;;19.25;;
23432;SDS011;41331;45.412;10.992;2022-10-18T03:41:13;30.05;;;19.60;;
23432;SDS011;41331;45.412;10.992;2022-10-18T03:43:41;31.98;;;19.55;;
23432;SDS011;41331;45.412;10.992;2022-10-18T03:46:08;31.92;;;19.02;;
23432;SDS011;41331;45.412;10.992;2022-10-18T03:48:35;32.72;;;18.63;;
23432;SDS011;41331;45.412;10.992;2022-10-18T03:51:03;29.48;;;18.33;;
23432;SDS011;41331;45.412;10.992;2022-10-18T03:53:30;30.80;;;18.95;;
23432;SDS011;41331;45.412;10.992;2022-10-18T03:55:58;31.30;;;19.00;;
23432;SDS011;41331;45.412;10.992;2022-10-18T03:58:25;33.05;;;19.52;;
23432;SDS011;41331;45.412;10.992;2022-10-18T04:00:53;31.67;;;18.65;;
23432;SDS011;41331;45.412;10.992;2022-10-18T04:03:21;32.63;;;19.38;;
23432;SDS011;41331;45.412;10.992;2022-10-18T04:05:49;29.25;;;19.30;;
23432;SDS011;41331;45.412;10.992;2022-10-18T04:08:17;30.25;;;19.00;;
23432;SDS011;41331;45.412;10.992;2022-10-18T04:10:45;30.50;;;19.42;;
23432;SDS011;41331;45.412;10.992;2022-10-18T04:13:12;32.65;;;18.98;;
23432;SDS011;41331;45.412;10.992;2022-10-18T04:15:40;31.40;;;18.42;;
23432;SDS011;41331;45.412;10.992;2022-10-18T04:18:07;31.30;;;19.08;;
23432;SDS011;41331;45.412;10.992;2022-10-18T04:20:34;33.75;;;19.60;;
23432;SDS011;41331;45.412;10.992;2022-10-18T04:23:02;30.48;;;18.35;;
23432;SDS011;41331;45.412;10.992;2022-10-18T04:25:29;29.13;;;18.20;;
23432;SDS011;41331;45.412;10.992;2022-10-18T04:27:56;30.75;;;17.92;;
23432;SDS011;41331;45.412;10.992;2022-10-18T04:30:24;29.23;;;18.40;;
23432;SDS011;41331;45.412;10.992;2022-10-18T04:32:51;33.03;;;18.83;;
23432;SDS011;41331;45.412;10.992;2022-10-18T04:35:21;28.30;;;18.23;;
23432;SDS011;41331;45.412;10.992;2022-10-18T04:37:50;31.40;;;18.25;;
23432;SDS011;41331;45.412;10.992;2022-10-18T04:40:18;33.67;;;18.50;;
23432;SDS011;41331;45.412;10.992;2022-10-18T04:42:46;34.05;;;18.50;;
23432;SDS011;41331;45.412;10.992;2022-10-18T04:45:13;29.23;;;18.30;;
23432;SDS011;41331;45.412;10.992;2022-10-18T04:47:40;32.38;;;19.20;;
23432;SDS011;41331;45.412;10.992;2022-10-18T04:50:08;30.83;;;17.83;;
23432;SDS011;41331;45.412;10.992;2022-10-18T04:52:35;30.92;;;19.10;;
23432;SDS011;41331;45.412;10.992;2022-10-18T04:55:03;30.70;;;17.98;;
23432;SDS011;41331;45.412;10.992;2022-10-18T04:57:30;28.60;;;17.92;;
23432;SDS011;41331;45.412;10.992;2022-10-18T04:59:58;28.77;;;18.30;;
23432;SDS011;41331;45.412;10.992;2022-10-18T05:02:26;33.53;;;17.98;;
23432;SDS011;41331;45.412;10.992;2022-10-18T05:04:53;30.05;;;19.77;;
23432;SDS011;41331;45.412;10.992;2022-10-18T05:07:21;29.83;;;18.88;;
23432;SDS011;41331;45.412;10.992;2022-10-18T05:09:49;29.80;;;18.17;;
23432;SDS011;41331;45.412;10.992;2022-10-18T05:12:16;32.63;;;18.98;;
23432;SDS011;41331;45.412;10.992;2022-10-18T05:14:44;33.00;;;19.20;;
23432;SDS011;41331;45.412;10.992;2022-10-18T05:17:11;33.25;;;19.33;;
23432;SDS011;41331;45.412;10.992;2022-10-18T05:19:38;31.63;;;18.67;;
23432;SDS011;41331;45.412;10.992;2022-10-18T05:22:06;30.33;;;19.05;;
23432;SDS011;41331;45.412;10.992;2022-10-18T05:24:33;32.03;;;18.60;;
23432;SDS011;41331;45.412;10.992;2022-10-18T05:27:01;30.23;;;19.35;;
23432;SDS011;41331;45.412;10.992;2022-10-18T05:29:29;30.10;;;18.90;;
23432;SDS011;41331;45.412;10.992;2022-10-18T05:31:56;29.30;;;17.92;;
23432;SDS011;41331;45.412;10.992;2022-10-18T05:34:24;33.92;;;20.75;;
23432;SDS011;41331;45.412;10.992;2022-10-18T05:36:53;35.47;;;20.48;;
23432;SDS011;41331;45.412;10.992;2022-10-18T05:39:20;30.13;;;19.80;;
23432;SDS011;41331;45.412;10.992;2022-10-18T05:41:48;33.00;;;19.90;;
23432;SDS011;41331;45.412;10.992;2022-10-18T05:44:16;31.15;;;19.85;;
23432;SDS011;41331;45.412;10.992;2022-10-18T05:46:46;32.78;;;19.48;;
23432;SDS011;41331;45.412;10.992;2022-10-18T05:49:13;33.15;;;19.88;;
23432;SDS011;41331;45.412;10.992;2022-10-18T05:51:41;37.42;;;21.27;;
23432;SDS011;41331;45.412;10.992;2022-10-18T05:54:10;31.60;;;20.20;;
23432;SDS011;41331;45.412;10.992;2022-10-18T05:56:40;37.75;;;21.17;;
23432;SDS011;41331;45.412;10.992;2022-10-18T05:59:07;35.10;;;21.48;;
23432;SDS011;41331;45.412;10.992;2022-10-18T06:01:38;36.85;;;20.98;;
23432;SDS011;41331;45.412;10.992;2022-10-18T06:04:08;35.83;;;21.13;;
23432;SDS011;41331;45.412;10.992;2022-10-18T06:06:37;40.05;;;21.65;;
23432;SDS011;41331;45.412;10.992;2022-10-18T06:09:05;36.33;;;20.63;;
23432;SDS011;41331;45.412;10.992;2022-10-18T06:11:34;38.70;;;21.60;;
23432;SDS011;41331;45.412;10.992;2022-10-18T06:14:02;35.72;;;21.55;;
23432;SDS011;41331;45.412;10.992;2022-10-18T06:16:30;34.33;;;21.42;;
23432;SDS011;41331;45.412;10.992;2022-10-18T06:18:59;38.95;;;22.65;;
23432;SDS011;41331;45.412;10.992;2022-10-18T06:21:26;36.47;;;22.38;;
23432;SDS011;41331;45.412;10.992;2022-10-18T06:23:55;39.42;;;23.42;;
23432;SDS011;41331;45.412;10.992;2022-10-18T06:26:25;38.55;;;23.73;;
23432;SDS011;41331;45.412;10.992;2022-10-18T06:28:53;38.38;;;23.27;;
23432;SDS011;41331;45.412;10.992;2022-10-18T06:31:21;39.72;;;23.85;;
23432;SDS011;41331;45.412;10.992;2022-10-18T06:33:48;39.92;;;24.38;;
23432;SDS011;41331;45.412;10.992;2022-10-18T06:36:17;43.40;;;23.88;;
23432;SDS011;41331;45.412;10.992;2022-10-18T06:38:50;42.60;;;25.80;;
23432;SDS011;41331;45.412;10.992;2022-10-18T06:41:18;44.03;;;25.05;;
23432;SDS011;41331;45.412;10.992;2022-10-18T06:43:47;40.72;;;24.23;;
23432;SDS011;41331;45.412;10.992;2022-10-18T06:46:16;44.30;;;26.52;;
23432;SDS011;41331;45.412;10.992;2022-10-18T06:48:43;41.63;;;25.10;;
23432;SDS011;41331;45.412;10.992;2022-10-18T06:51:11;39.85;;;25.65;;
23432;SDS011;41331;45.412;10.992;2022-10-18T06:53:39;38.83;;;23.90;;
23432;SDS011;41331;45.412;10.992;2022-10-18T06:56:19;42.65;;;24.38;;
23432;SDS011;41331;45.412;10.992;2022-10-18T06:58:46;40.88;;;25.02;;
23432;SDS011;41331;45.412;10.992;2022-10-18T07:01:15;42.05;;;25.65;;
23432;SDS011;41331;45.412;10.992;2022-10-18T07:03:44;40.17;;;24.83;;
23432;SDS011;41331;45.412;10.992;2022-10-18T07:06:13;45.60;;;25.05;;
23432;SDS011;41331;45.412;10.992;2022-10-18T07:08:43;43.83;;;24.70;;
23432;SDS011;41331;45.412;10.992;2022-10-18T07:11:19;42.28;;;25.35;;
23432;SDS011;41331;45.412;10.992;2022-10-18T07:13:50;42.22;;;25.08;;
23432;SDS011;41331;45.412;10.992;2022-10-18T07:16:20;42.20;;;25.48;;
23432;SDS011;41331;45.412;10.992;2022-10-18T07:18:48;48.92;;;24.85;;
23432;SDS011;41331;45.412;10.992;2022-10-18T07:21:18;42.97;;;25.15;;
23432;SDS011;41331;45.412;10.992;2022-10-18T07:23:48;40.35;;;25.20;;
23432;SDS011;41331;45.412;10.992;2022-10-18T07:26:20;40.38;;;25.60;;
23432;SDS011;41331;45.412;10.992;2022-10-18T07:28:49;39.92;;;25.15;;
23432;SDS011;41331;45.412;10.992;2022-10-18T07:31:24;41.03;;;25.10;;
23432;SDS011;41331;45.412;10.992;2022-10-18T07:33:52;42.60;;;25.98;;
23432;SDS011;41331;45.412;10.992;2022-10-18T07:36:20;42.42;;;25.58;;
23432;SDS011;41331;45.412;10.992;2022-10-18T07:38:48;42.75;;;26.20;;
23432;SDS011;41331;45.412;10.992;2022-10-18T07:41:17;41.17;;;25.38;;
23432;SDS011;41331;45.412;10.992;2022-10-18T07:43:46;39.85;;;25.35;;
23432;SDS011;41331;45.412;10.992;2022-10-18T07:46:17;40.83;;;23.88;;
23432;SDS011;41331;45.412;10.992;2022-10-18T07:48:45;37.20;;;22.45;;
23432;SDS011;41331;45.412;10.992;2022-10-18T07:51:15;35.08;;;22.88;;
23432;SDS011;41331;45.412;10.992;2022-10-18T07:53:43;32.63;;;21.42;;
23432;SDS011;41331;45.412;10.992;2022-10-18T07:56:12;30.88;;;22.13;;
23432;SDS011;41331;45.412;10.992;2022-10-18T07:58:48;34.47;;;21.77;;
23432;SDS011;41331;45.412;10.992;2022-10-18T08:01:17;31.77;;;21.48;;
23432;SDS011;41331;45.412;10.992;2022-10-18T08:03:47;34.08;;;21.95;;
23432;SDS011;41331;45.412;10.992;2022-10-18T08:06:16;37.97;;;23.10;;
23432;SDS011;41331;45.412;10.992;2022-10-18T08:08:45;38.05;;;23.48;;
23432;SDS011;41331;45.412;10.992;2022-10-18T08:11:14;34.95;;;23.40;;
23432;SDS011;41331;45.412;10.992;2022-10-18T08:13:46;31.73;;;23.00;;
23432;SDS011;41331;45.412;10.992;2022-10-18T08:16:15;33.55;;;23.85;;
23432;SDS011;41331;45.412;10.992;2022-10-18T08:18:47;35.67;;;23.40;;
23432;SDS011;41331;45.412;10.992;2022-10-18T08:21:15;35.67;;;24.83;;
23432;SDS011;41331;45.412;10.992;2022-10-18T08:23:44;34.95;;;24.63;;
23432;SDS011;41331;45.412;10.992;2022-10-18T08:26:13;37.58;;;24.75;;
23432;SDS011;41331;45.412;10.992;2022-10-18T08:28:42;38.08;;;24.50;;
23432;SDS011;41331;45.412;10.992;2022-10-18T08:31:24;34.25;;;23.88;;
23432;SDS011;41331;45.412;10.992;2022-10-18T08:33:54;32.35;;;22.88;;
23432;SDS011;41331;45.412;10.992;2022-10-18T08:36:23;32.70;;;23.88;;
23432;SDS011;41331;45.412;10.992;2022-10-18T08:38:51;36.38;;;23.67;;
23432;SDS011;41331;45.412;10.992;2022-10-18T08:43:46;38.75;;;23.27;;
23432;SDS011;41331;45.412;10.992;2022-10-18T08:46:33;32.22;;;22.42;;
23432;SDS011;41331;45.412;10.992;2022-10-18T08:49:03;32.72;;;22.88;;
23432;SDS011;41331;45.412;10.992;2022-10-18T08:51:41;33.13;;;22.70;;
23432;SDS011;41331;45.412;10.992;2022-10-18T08:54:13;34.28;;;22.02;;
23432;SDS011;41331;45.412;10.992;2022-10-18T08:56:49;29.35;;;21.30;;
23432;SDS011;41331;45.412;10.992;2022-10-18T08:59:25;29.42;;;21.52;;
23432;SDS011;41331;45.412;10.992;2022-10-18T09:02:15;30.90;;;21.10;;
23432;SDS011;41331;45.412;10.992;2022-10-18T09:04:55;32.65;;;22.48;;
23432;SDS011;41331;45.412;10.992;2022-10-18T09:10:28;29.10;;;21.92;;
23432;SDS011;41331;45.412;10.992;2022-10-18T09:24:09;29.35;;;20.92;;
23432;SDS011;41331;45.412;10.992;2022-10-18T09:26:43;31.65;;;20.67;;
23432;SDS011;41331;45.412;10.992;2022-10-18T09:32:13;29.23;;;22.20;;
23432;SDS011;41331;45.412;10.992;2022-10-18T09:34:59;30.13;;;20.90;;
23432;SDS011;41331;45.412;10.992;2022-10-18T09:37:33;37.40;;;22.95;;
23432;SDS011;41331;45.412;10.992;2022-10-18T09:40:11;32.05;;;23.08;;
23432;SDS011;41331;45.412;10.992;2022-10-18T09:42:50;34.13;;;22.67;;
23432;SDS011;41331;45.412;10.992;2022-10-18T09:45:26;31.65;;;22.48;;
23432;SDS011;41331;45.412;10.992;2022-10-18T09:48:00;30.35;;;21.17;;
23432;SDS011;41331;45.412;10.992;2022-10-18T09:50:36;36.13;;;22.35;;
23432;SDS011;41331;45.412;10.992;2022-10-18T09:56:10;31.08;;;21.63;;
23432;SDS011;41331;45.412;10.992;2022-10-18T09:58:44;33.38;;;22.48;;
23432;SDS011;41331;45.412;10.992;2022-10-18T10:01:15;29.67;;;20.10;;
23432;SDS011;41331;45.412;10.992;2022-10-18T10:03:47;29.23;;;19.88;;
23432;SDS011;41331;45.412;10.992;2022-10-18T10:06:15;30.42;;;20.45;;
23432;SDS011;41331;45.412;10.992;2022-10-18T10:08:52;29.48;;;19.60;;
23432;SDS011;41331;45.412;10.992;2022-10-18T10:11:25;25.90;;;18.55;;
23432;SDS011;41331;45.412;10.992;2022-10-18T10:14:13;30.45;;;19.73;;
23432;SDS011;41331;45.412;10.992;2022-10-18T10:17:10;32.30;;;18.98;;
23432;SDS011;41331;45.412;10.992;2022-10-18T10:20:32;31.98;;;19.15;;
23432;SDS011;41331;45.412;10.992;2022-10-18T10:22:44;30.88;;;19.50;;
23432;SDS011;41331;45.412;10.992;2022-10-18T10:25:22;34.55;;;20.67;;
23432;SDS011;41331;45.412;10.992;2022-10-18T10:27:51;32.65;;;19.63;;
23432;SDS011;41331;45.412;10.992;2022-10-18T10:32:52;30.42;;;20.23;;
23432;SDS011;41331;45.412;10.992;2022-10-18T10:35:29;30.08;;;19.52;;
23432;SDS011;41331;45.412;10.992;2022-10-18T10:38:25;31.05;;;18.83;;
23432;SDS011;41331;45.412;10.992;2022-10-18T10:40:54;28.42;;;17.70;;
23432;SDS011;41331;45.412;10.992;2022-10-18T10:43:29;30.70;;;18.65;;
23432;SDS011;41331;45.412;10.992;2022-10-18T10:46:12;31.45;;;19.15;;
23432;SDS011;41331;45.412;10.992;2022-10-18T10:51:38;19.85;;;13.82;;
23432;SDS011;41331;45.412;10.992;2022-10-18T10:54:11;21.63;;;13.00;;
23432;SDS011;41331;45.412;10.992;2022-10-18T11:04:44;23.58;;;13.63;;
23432;SDS011;41331;45.412;10.992;2022-10-18T11:12:25;19.17;;;13.30;;
23432;SDS011;41331;45.412;10.992;2022-10-18T11:23:11;13.82;;;10.25;;
23432;SDS011;41331;45.412;10.992;2022-10-18T11:28:36;15.57;;;9.73;;
23432;SDS011;41331;45.412;10.992;2022-10-18T11:53:33;12.93;;;9.18;;
23432;SDS011;41331;45.412;10.992;2022-10-18T11:58:55;16.13;;;10.77;;
23432;SDS011;41331;45.412;10.992;2022-10-18T12:06:45;21.40;;;13.40;;
23432;SDS011;41331;45.412;10.992;2022-10-18T12:12:19;24.10;;;15.85;;
23432;SDS011;41331;45.412;10.992;2022-10-18T12:14:53;26.05;;;14.13;;
23432;SDS011;41331;45.412;10.992;2022-10-18T12:17:35;24.58;;;14.00;;
23432;SDS011;41331;45.412;10.992;2022-10-18T12:23:01;23.23;;;14.77;;
23432;SDS011;41331;45.412;10.992;2022-10-18T12:25:34;22.70;;;15.00;;
23432;SDS011;41331;45.412;10.992;2022-10-18T12:33:26;23.85;;;15.65;;
23432;SDS011;41331;45.412;10.992;2022-10-18T12:36:17;27.48;;;15.38;;
23432;SDS011;41331;45.412;10.992;2022-10-18T12:38:57;29.02;;;18.55;;
23432;SDS011;41331;45.412;10.992;2022-10-18T12:41:28;29.30;;;18.33;;
23432;SDS011;41331;45.412;10.992;2022-10-18T12:44:20;32.10;;;19.55;;
23432;SDS011;41331;45.412;10.992;2022-10-18T12:46:49;30.98;;;17.33;;
23432;SDS011;41331;45.412;10.992;2022-10-18T12:49:28;29.67;;;18.65;;
23432;SDS011;41331;45.412;10.992;2022-10-18T12:51:59;34.08;;;20.58;;
23432;SDS011;41331;45.412;10.992;2022-10-18T12:54:34;37.15;;;22.13;;
23432;SDS011;41331;45.412;10.992;2022-10-18T12:57:05;45.13;;;24.20;;
23432;SDS011;41331;45.412;10.992;2022-10-18T12:59:48;35.08;;;22.92;;
23432;SDS011;41331;45.412;10.992;2022-10-18T13:02:23;38.92;;;23.30;;
23432;SDS011;41331;45.412;10.992;2022-10-18T13:04:52;35.78;;;23.83;;
23432;SDS011;41331;45.412;10.992;2022-10-18T13:07:33;46.17;;;25.65;;
23432;SDS011;41331;45.412;10.992;2022-10-18T13:15:57;38.63;;;23.42;;
23432;SDS011;41331;45.412;10.992;2022-10-18T13:18:36;40.63;;;23.90;;
23432;SDS011;41331;45.412;10.992;2022-10-18T13:21:21;38.72;;;24.40;;
23432;SDS011;41331;45.412;10.992;2022-10-18T13:41:10;39.85;;;24.13;;
23432;SDS011;41331;45.412;10.992;2022-10-18T14:06:20;40.30;;;25.27;;
23432;SDS011;41331;45.412;10.992;2022-10-18T14:12:07;46.40;;;26.77;;
23432;SDS011;41331;45.412;10.992;2022-10-18T14:14:44;43.15;;;26.48;;
23432;SDS011;41331;45.412;10.992;2022-10-18T14:20:50;49.17;;;28.65;;
23432;SDS011;41331;45.412;10.992;2022-10-18T14:23:34;48.05;;;29.08;;
23432;SDS011;41331;45.412;10.992;2022-10-18T14:26:07;46.28;;;29.25;;
23432;SDS011;41331;45.412;10.992;2022-10-18T14:28:42;50.55;;;28.98;;
23432;SDS011;41331;45.412;10.992;2022-10-18T14:31:26;43.45;;;27.50;;
23432;SDS011;41331;45.412;10.992;2022-10-18T14:33:54;47.35;;;27.05;;
23432;SDS011;41331;45.412;10.992;2022-10-18T14:36:26;47.88;;;28.98;;
23432;SDS011;41331;45.412;10.992;2022-10-18T14:39:01;50.03;;;30.60;;
23432;SDS011;41331;45.412;10.992;2022-10-18T14:41:31;51.03;;;30.67;;
23432;SDS011;41331;45.412;10.992;2022-10-18T14:49:13;50.92;;;31.15;;
23432;SDS011;41331;45.412;10.992;2022-10-18T14:51:46;47.50;;;28.60;;
23432;SDS011;41331;45.412;10.992;2022-10-18T14:54:17;51.58;;;29.77;;
23432;SDS011;41331;45.412;10.992;2022-10-18T14:56:55;49.53;;;29.77;;
23432;SDS011;41331;45.412;10.992;2022-10-18T14:59:24;56.03;;;30.10;;
23432;SDS011;41331;45.412;10.992;2022-10-18T15:01:57;49.10;;;29.98;;
23432;SDS011;41331;45.412;10.992;2022-10-18T15:04:26;45.33;;;28.30;;
23432;SDS011;41331;45.412;10.992;2022-10-18T15:06:59;45.13;;;28.63;;
23432;SDS011;41331;45.412;10.992;2022-10-18T15:09:29;47.92;;;30.70;;
23432;SDS011;41331;45.412;10.992;2022-10-18T15:11:59;50.03;;;28.58;;
23432;SDS011;41331;45.412;10.992;2022-10-18T15:14:28;47.05;;;29.30;;
23432;SDS011;41331;45.412;10.992;2022-10-18T15:17:15;46.35;;;29.23;;
23432;SDS011;41331;45.412;10.992;2022-10-18T15:19:57;45.55;;;27.15;;
23432;SDS011;41331;45.412;10.992;2022-10-18T15:22:32;45.10;;;27.90;;
23432;SDS011;41331;45.412;10.992;2022-10-18T15:25:10;47.47;;;27.90;;
23432;SDS011;41331;45.412;10.992;2022-10-18T15:27:43;47.92;;;28.05;;
23432;SDS011;41331;45.412;10.992;2022-10-18T15:33:20;40.95;;;26.65;;
23432;SDS011;41331;45.412;10.992;2022-10-18T15:35:50;45.95;;;27.42;;
23432;SDS011;41331;45.412;10.992;2022-10-18T15:38:26;44.60;;;26.35;;
23432;SDS011;41331;45.412;10.992;2022-10-18T15:40:57;44.88;;;21.73;;
23432;SDS011;41331;45.412;10.992;2022-10-18T15:45:53;40.97;;;26.05;;
23432;SDS011;41331;45.412;10.992;2022-10-18T15:51:06;42.03;;;26.42;;
23432;SDS011;41331;45.412;10.992;2022-10-18T15:58:44;44.40;;;24.27;;
23432;SDS011;41331;45.412;10.992;2022-10-18T16:01:14;44.88;;;25.67;;
23432;SDS011;41331;45.412;10.992;2022-10-18T16:03:44;46.53;;;26.73;;
23432;SDS011;41331;45.412;10.992;2022-10-18T16:06:13;39.85;;;24.60;;
23432;SDS011;41331;45.412;10.992;2022-10-18T16:08:45;49.10;;;28.05;;
23432;SDS011;41331;45.412;10.992;2022-10-18T16:11:18;47.90;;;29.65;;
23432;SDS011;41331;45.412;10.992;2022-10-18T16:13:50;53.08;;;30.90;;
23432;SDS011;41331;45.412;10.992;2022-10-18T16:16:24;45.67;;;26.67;;
23432;SDS011;41331;45.412;10.992;2022-10-18T16:18:54;50.53;;;30.05;;
23432;SDS011;41331;45.412;10.992;2022-10-18T16:21:23;51.03;;;30.45;;
23432;SDS011;41331;45.412;10.992;2022-10-18T16:23:53;54.83;;;32.03;;
23432;SDS011;41331;45.412;10.992;2022-10-18T16:26:23;54.17;;;31.88;;
23432;SDS011;41331;45.412;10.992;2022-10-18T16:28:52;56.17;;;31.00;;
23432;SDS011;41331;45.412;10.992;2022-10-18T16:31:21;51.53;;;31.23;;
23432;SDS011;41331;45.412;10.992;2022-10-18T16:33:54;55.72;;;32.10;;
23432;SDS011;41331;45.412;10.992;2022-10-18T16:36:26;57.58;;;31.10;;
23432;SDS011;41331;45.412;10.992;2022-10-18T16:38:55;52.67;;;30.67;;
23432;SDS011;41331;45.412;10.992;2022-10-18T16:41:24;53.63;;;31.25;;
23432;SDS011;41331;45.412;10.992;2022-10-18T16:43:51;61.50;;;32.28;;
23432;SDS011;41331;45.412;10.992;2022-10-18T16:46:20;55.85;;;32.47;;
23432;SDS011;41331;45.412;10.992;2022-10-18T16:48:49;56.38;;;31.27;;
23432;SDS011;41331;45.412;10.992;2022-10-18T16:51:17;53.55;;;32.47;;
23432;SDS011;41331;45.412;10.992;2022-10-18T16:53:46;58.28;;;33.38;;
23432;SDS011;41331;45.412;10.992;2022-10-18T16:56:14;60.78;;;33.08;;
23432;SDS011;41331;45.412;10.992;2022-10-18T16:58:46;58.00;;;33.75;;
23432;SDS011;41331;45.412;10.992;2022-10-18T17:01:15;58.08;;;32.72;;
23432;SDS011;41331;45.412;10.992;2022-10-18T17:03:45;60.88;;;33.50;;
23432;SDS011;41331;45.412;10.992;2022-10-18T17:06:28;61.83;;;34.75;;
23432;SDS011;41331;45.412;10.992;2022-10-18T17:08:58;60.72;;;34.38;;
23432;SDS011;41331;45.412;10.992;2022-10-18T17:11:26;60.30;;;35.08;;
23432;SDS011;41331;45.412;10.992;2022-10-18T17:13:54;57.42;;;32.95;;
23432;SDS011;41331;45.412;10.992;2022-10-18T17:18:52;63.65;;;33.03;;
23432;SDS011;41331;45.412;10.992;2022-10-18T17:21:25;55.45;;;34.10;;
23432;SDS011;41331;45.412;10.992;2022-10-18T17:23:53;60.00;;;34.28;;
23432;SDS011;41331;45.412;10.992;2022-10-18T17:26:22;57.97;;;34.35;;
23432;SDS011;41331;45.412;10.992;2022-10-18T17:28:56;56.40;;;33.60;;
23432;SDS011;41331;45.412;10.992;2022-10-18T17:31:26;64.82;;;34.65;;
23432;SDS011;41331;45.412;10.992;2022-10-18T17:33:57;61.73;;;34.63;;
23432;SDS011;41331;45.412;10.992;2022-10-18T17:36:28;57.10;;;34.63;;
23432;SDS011;41331;45.412;10.992;2022-10-18T17:39:00;62.58;;;33.05;;
23432;SDS011;41331;45.412;10.992;2022-10-18T17:41:28;56.75;;;33.50;;
23432;SDS011;41331;45.412;10.992;2022-10-18T17:43:55;59.03;;;34.35;;
23432;SDS011;41331;45.412;10.992;2022-10-18T17:46:22;62.80;;;34.67;;
23432;SDS011;41331;45.412;10.992;2022-10-18T17:48:50;60.00;;;33.65;;
23432;SDS011;41331;45.412;10.992;2022-10-18T17:51:20;62.03;;;34.75;;
23432;SDS011;41331;45.412;10.992;2022-10-18T17:53:48;62.15;;;34.70;;